Time;durP1;ratioP1;P1;durP2;ratioP2;P2;SDS_P1;SDS_P2;PMS_P1;PMS_P2;Temp;Humidity;BMP_temperature;BMP_pressure;BME280_temperature;BME280_humidity;BME280_pressure;Samples;Min_cycle;Max_cycle;Signal;HPM_P1;HPM_P2
2024/02/03 00:01:23;;;;;;;41.20;32.47;;;9.80;99.90;;;;;;10476435;28;20199;-61
2024/02/03 00:06:29;;;;;;;39.53;32.00;;;9.80;99.90;;;;;;10490613;28;20222;-62
2024/02/03 00:11:33;;;;;;;39.75;31.13;;;9.80;99.90;;;;;;10485071;28;20225;-61
2024/02/03 00:16:37;;;;;;;40.72;32.28;;;9.80;99.90;;;;;;10476957;28;20308;-62
2024/02/03 00:21:42;;;;;;;40.10;31.57;;;9.90;99.90;;;;;;10485804;28;20256;-62
2024/02/03 00:26:46;;;;;;;43.22;32.42;;;9.90;99.90;;;;;;10479008;28;20252;-61
2024/02/03 00:31:50;;;;;;;42.03;31.48;;;9.80;99.90;;;;;;10477941;28;20268;-62
2024/02/03 00:36:55;;;;;;;41.33;31.63;;;9.80;99.90;;;;;;10486404;28;20226;-60
2024/02/03 00:41:58;;;;;;;40.13;31.95;;;9.90;99.90;;;;;;10478555;28;20204;-61
2024/02/03 00:47:02;;;;;;;41.43;32.33;;;9.80;99.90;;;;;;10476996;28;20238;-61
2024/02/03 00:52:07;;;;;;;38.57;30.03;;;9.80;99.90;;;;;;10470048;28;20791;-61
2024/02/03 00:57:11;;;;;;;39.03;29.97;;;9.80;99.90;;;;;;10481722;28;20250;-61
2024/02/03 01:02:14;;;;;;;35.37;28.50;;;9.80;99.90;;;;;;10480417;28;20194;-61
2024/02/03 01:07:19;;;;;;;33.53;27.87;;;9.90;99.90;;;;;;10473291;28;20269;-61
2024/02/03 01:12:23;;;;;;;33.67;26.70;;;9.90;99.90;;;;;;10475653;28;20261;-60
2024/02/03 01:17:27;;;;;;;33.10;26.53;;;9.90;99.90;;;;;;10480005;28;20670;-62
2024/02/03 01:22:32;;;;;;;31.67;26.83;;;9.90;99.90;;;;;;10474089;28;20199;-61
2024/02/03 01:27:36;;;;;;;30.40;26.60;;;9.90;99.90;;;;;;10471567;28;20245;-62
2024/02/03 01:32:39;;;;;;;30.37;26.50;;;10.00;99.90;;;;;;10481114;28;20288;-62
2024/02/03 01:37:44;;;;;;;31.43;26.93;;;10.00;99.90;;;;;;10477009;28;20246;-62
2024/02/03 01:42:48;;;;;;;31.90;26.92;;;10.00;99.90;;;;;;10493501;28;20685;-63
2024/02/03 01:47:52;;;;;;;32.30;27.20;;;10.00;99.90;;;;;;10477089;28;20858;-61
2024/02/03 01:53:06;;;;;;;31.85;26.75;;;10.00;99.90;;;;;;10476459;28;20698;-61
2024/02/03 01:58:10;;;;;;;31.40;26.63;;;10.00;99.90;;;;;;10484972;28;20283;-60
2024/02/03 02:03:14;;;;;;;31.90;27.08;;;10.00;99.90;;;;;;10476311;28;20209;-65
2024/02/03 02:08:19;;;;;;;31.97;27.87;;;10.00;99.90;;;;;;10474569;28;20265;-64
2024/02/03 02:13:23;;;;;;;32.75;28.73;;;10.00;99.90;;;;;;10476799;28;20230;-64
2024/02/03 02:18:27;;;;;;;33.03;28.58;;;10.00;99.90;;;;;;10477674;28;20231;-64
2024/02/03 02:23:33;;;;;;;30.58;26.48;;;10.00;99.90;;;;;;10472643;28;20242;-64
2024/02/03 02:28:39;;;;;;;28.65;25.48;;;10.00;99.90;;;;;;10482663;28;20219;-65
2024/02/03 02:33:42;;;;;;;27.53;24.53;;;10.10;99.90;;;;;;10480357;28;20815;-65
2024/02/03 02:38:48;;;;;;;25.92;23.13;;;10.10;99.90;;;;;;10470979;28;20250;-65
2024/02/03 02:43:51;;;;;;;26.50;23.70;;;10.10;99.90;;;;;;10486017;28;20226;-65
2024/02/03 02:48:55;;;;;;;25.53;22.83;;;10.10;99.90;;;;;;10486179;28;20311;-65
2024/02/03 02:54:00;;;;;;;26.85;23.95;;;10.10;99.90;;;;;;10481288;28;20597;-65
2024/02/03 02:59:04;;;;;;;27.63;24.57;;;10.10;99.90;;;;;;10473411;28;20287;-65
2024/02/03 03:04:07;;;;;;;26.60;23.80;;;10.10;99.90;;;;;;10478613;28;20571;-66
2024/02/03 03:09:13;;;;;;;26.55;23.50;;;10.20;99.90;;;;;;10474702;28;20742;-66
2024/02/03 03:14:16;;;;;;;27.58;24.67;;;10.20;99.90;;;;;;10477039;28;20230;-65
2024/02/03 03:19:20;;;;;;;28.47;25.33;;;10.20;99.90;;;;;;10483411;28;20255;-65
2024/02/03 03:24:25;;;;;;;29.87;25.83;;;10.20;99.90;;;;;;10484893;28;20207;-64
2024/02/03 03:29:28;;;;;;;30.10;26.40;;;10.20;99.90;;;;;;10476068;28;20265;-63
2024/02/03 03:34:32;;;;;;;29.58;25.20;;;10.20;99.90;;;;;;10482980;28;20209;-60
2024/02/03 03:39:37;;;;;;;28.30;25.30;;;10.20;99.90;;;;;;10481928;28;20268;-63
2024/02/03 03:44:43;;;;;;;28.33;25.33;;;10.20;99.90;;;;;;10480640;28;20230;-63
2024/02/03 03:49:47;;;;;;;28.00;24.83;;;10.30;99.90;;;;;;10474996;28;20211;-63
2024/02/03 03:54:52;;;;;;;26.58;23.77;;;10.20;99.90;;;;;;10487830;28;20288;-61
2024/02/03 03:59:56;;;;;;;28.05;23.83;;;10.20;99.90;;;;;;10479523;28;20251;-61
2024/02/03 04:04:59;;;;;;;28.00;24.42;;;10.20;99.90;;;;;;10475143;28;20195;-61
2024/02/03 04:10:05;;;;;;;27.42;24.27;;;10.20;99.90;;;;;;10487010;28;20215;-60
2024/02/03 04:15:09;;;;;;;29.08;23.83;;;10.30;99.90;;;;;;10481032;28;20862;-61
2024/02/03 04:20:13;;;;;;;29.42;24.67;;;10.20;99.90;;;;;;10476720;28;20258;-61
2024/02/03 04:25:18;;;;;;;30.42;25.33;;;10.20;99.90;;;;;;10483453;28;20330;-61
2024/02/03 04:30:22;;;;;;;27.55;23.52;;;10.20;99.90;;;;;;10472259;28;20702;-61
2024/02/03 04:35:27;;;;;;;26.75;22.30;;;10.20;99.90;;;;;;10481836;28;20252;-62
2024/02/03 04:40:32;;;;;;;26.10;22.95;;;10.20;99.90;;;;;;10476029;28;20708;-62
2024/02/03 04:45:36;;;;;;;30.67;23.23;;;10.10;99.90;;;;;;10481557;28;20253;-63
2024/02/03 04:50:39;;;;;;;26.03;22.60;;;10.10;99.90;;;;;;10474415;28;20218;-63
2024/02/03 04:55:44;;;;;;;26.33;22.40;;;10.10;99.90;;;;;;10482135;28;20731;-62
2024/02/03 05:00:48;;;;;;;28.90;24.77;;;10.10;99.90;;;;;;10483772;28;20223;-62
2024/02/03 05:05:51;;;;;;;26.67;23.00;;;10.10;99.90;;;;;;10482964;28;20260;-64
2024/02/03 05:10:56;;;;;;;28.35;24.70;;;10.10;99.90;;;;;;10488815;28;20195;-62
2024/02/03 05:16:00;;;;;;;29.08;24.85;;;10.10;99.90;;;;;;10480033;28;20195;-61
2024/02/03 05:21:05;;;;;;;30.92;25.23;;;10.10;99.90;;;;;;10484877;28;20289;-63
2024/02/03 05:26:10;;;;;;;33.58;25.67;;;10.10;99.90;;;;;;10475588;28;20559;-63
2024/02/03 05:31:20;;;;;;;33.75;27.40;;;10.20;99.90;;;;;;10483209;28;20240;-63
2024/02/03 05:36:23;;;;;;;33.97;27.80;;;10.20;99.90;;;;;;10479969;28;20223;-62
2024/02/03 05:41:28;;;;;;;35.35;28.83;;;10.20;99.90;;;;;;10472221;28;20629;-62
2024/02/03 05:46:32;;;;;;;33.30;26.98;;;10.20;99.90;;;;;;10475750;28;20227;-62
2024/02/03 05:51:35;;;;;;;35.45;28.20;;;10.20;99.90;;;;;;10482925;28;20600;-63
2024/02/03 05:56:40;;;;;;;34.93;28.17;;;10.20;99.90;;;;;;10480442;28;20230;-62
2024/02/03 06:01:44;;;;;;;33.13;27.05;;;10.20;99.90;;;;;;10480752;28;20275;-61
2024/02/03 06:06:47;;;;;;;31.40;25.65;;;10.20;99.90;;;;;;10484380;28;20230;-62
2024/02/03 06:11:52;;;;;;;31.50;25.90;;;10.20;99.90;;;;;;10477145;28;20256;-61
2024/02/03 06:16:56;;;;;;;31.40;26.13;;;10.20;99.90;;;;;;10477690;28;20623;-62
2024/02/03 06:21:59;;;;;;;29.23;25.42;;;10.20;99.90;;;;;;10484007;28;20218;-62
2024/02/03 06:27:05;;;;;;;29.17;23.67;;;10.20;99.90;;;;;;10471301;28;20277;-61
2024/02/03 06:32:09;;;;;;;29.02;23.48;;;10.20;99.90;;;;;;10471077;28;20191;-62
2024/02/03 06:37:13;;;;;;;29.13;24.20;;;10.20;99.90;;;;;;10482615;28;20219;-62
2024/02/03 06:42:18;;;;;;;29.03;22.83;;;10.20;99.90;;;;;;10471955;28;20219;-62
2024/02/03 06:47:22;;;;;;;28.08;21.98;;;10.20;99.90;;;;;;10484154;28;20235;-62
2024/02/03 06:52:25;;;;;;;25.23;21.37;;;10.20;99.90;;;;;;10499444;28;20675;-64
2024/02/03 06:57:30;;;;;;;22.03;18.70;;;10.20;99.90;;;;;;10490277;28;20252;-63
2024/02/03 07:02:34;;;;;;;21.92;19.58;;;10.30;99.90;;;;;;10485454;28;20316;-62
2024/02/03 07:07:37;;;;;;;24.17;21.10;;;10.30;99.90;;;;;;10486664;28;20288;-62
2024/02/03 07:12:45;;;;;;;32.97;29.67;;;10.30;99.90;;;;;;10472014;28;20442;-64
2024/02/03 07:17:49;;;;;;;26.25;22.60;;;10.40;99.90;;;;;;10488593;28;20215;-63
2024/02/03 07:22:53;;;;;;;26.40;22.10;;;10.50;99.90;;;;;;10491681;28;20420;-63
2024/02/03 07:27:58;;;;;;;26.98;24.02;;;10.50;99.90;;;;;;10489397;28;20215;-65
2024/02/03 07:33:04;;;;;;;29.00;24.67;;;10.40;99.90;;;;;;10481946;28;20190;-64
2024/02/03 07:38:08;;;;;;;28.23;24.73;;;10.40;99.90;;;;;;10492383;28;20276;-63
2024/02/03 07:43:13;;;;;;;27.48;24.48;;;10.40;99.90;;;;;;10487494;28;20576;-63
2024/02/03 07:48:16;;;;;;;27.00;24.17;;;10.40;99.90;;;;;;10482029;28;20215;-62
2024/02/03 07:53:20;;;;;;;25.77;22.98;;;10.40;99.90;;;;;;10489069;28;20203;-64
2024/02/03 07:58:26;;;;;;;27.98;24.05;;;10.40;99.90;;;;;;10482376;28;20603;-63
2024/02/03 08:03:29;;;;;;;26.40;22.85;;;10.40;99.90;;;;;;10486430;28;20612;-63
2024/02/03 08:08:33;;;;;;;25.08;21.95;;;10.40;99.90;;;;;;10486462;28;20315;-67
2024/02/03 08:13:38;;;;;;;24.85;21.70;;;10.40;99.90;;;;;;10479505;28;20207;-65
2024/02/03 08:18:42;;;;;;;26.23;21.08;;;10.40;99.90;;;;;;10482776;28;20578;-67
2024/02/03 08:23:46;;;;;;;26.70;22.35;;;10.40;99.90;;;;;;10480006;28;20250;-67
2024/02/03 08:28:51;;;;;;;28.27;22.48;;;10.40;99.90;;;;;;10497123;28;20214;-63
2024/02/03 08:33:54;;;;;;;24.38;19.25;;;10.40;99.90;;;;;;10497319;28;20221;-64
2024/02/03 08:38:58;;;;;;;26.77;20.27;;;10.40;99.90;;;;;;10496399;28;20697;-64
2024/02/03 08:44:03;;;;;;;24.40;19.55;;;10.50;99.90;;;;;;10496629;28;20199;-64
2024/02/03 08:49:08;;;;;;;26.48;19.75;;;10.50;99.90;;;;;;10489529;28;20223;-64
2024/02/03 08:54:12;;;;;;;25.13;18.87;;;10.50;99.90;;;;;;10454953;28;20200;-66
2024/02/03 08:59:17;;;;;;;23.02;18.95;;;10.50;99.90;;;;;;10496423;28;20227;-62
2024/02/03 09:04:20;;;;;;;27.20;19.70;;;10.50;99.90;;;;;;10495727;28;20215;-64
2024/02/03 09:09:24;;;;;;;24.23;18.60;;;10.50;99.90;;;;;;10496272;28;20227;-63
2024/02/03 09:14:29;;;;;;;23.60;18.10;;;10.50;99.90;;;;;;10494603;28;20218;-62
2024/02/03 09:19:33;;;;;;;21.50;18.42;;;10.60;99.90;;;;;;10495214;28;20214;-64
2024/02/03 09:24:37;;;;;;;23.67;18.90;;;10.60;99.90;;;;;;10495092;28;20607;-62
2024/02/03 09:29:42;;;;;;;27.27;19.13;;;10.60;99.90;;;;;;10494987;28;20762;-63
2024/02/03 09:34:49;;;;;;;23.48;18.73;;;10.60;99.90;;;;;;10494935;28;20669;-63
2024/02/03 09:39:52;;;;;;;21.92;17.83;;;10.60;99.90;;;;;;10494834;28;20252;-64
2024/02/03 09:44:58;;;;;;;25.80;19.48;;;10.60;99.90;;;;;;10508536;28;20183;-64
2024/02/03 09:50:02;;;;;;;25.75;20.33;;;10.70;99.90;;;;;;10493591;28;20226;-62
2024/02/03 09:55:06;;;;;;;26.33;20.00;;;10.70;99.90;;;;;;10493349;28;20230;-62
2024/02/03 10:00:13;;;;;;;23.65;19.00;;;10.70;99.90;;;;;;10492911;28;20219;-62
2024/02/03 10:05:26;;;;;;;24.75;19.85;;;10.70;99.90;;;;;;10493978;28;20560;-65
2024/02/03 10:10:32;;;;;;;25.80;19.73;;;10.70;99.90;;;;;;10496101;28;20214;-66
2024/02/03 10:15:40;;;;;;;26.95;20.00;;;10.70;99.90;;;;;;10492754;28;20203;-63
2024/02/03 10:20:44;;;;;;;25.05;19.38;;;10.70;99.90;;;;;;10492498;28;20787;-64
2024/02/03 10:25:47;;;;;;;28.73;19.95;;;10.70;99.90;;;;;;10491228;28;20248;-66
2024/02/03 10:30:55;;;;;;;25.45;20.30;;;10.70;99.90;;;;;;10488404;28;20248;-68
2024/02/03 10:36:04;;;;;;;26.05;20.17;;;10.70;99.90;;;;;;10491631;28;20225;-64
2024/02/03 10:41:11;;;;;;;24.25;19.67;;;10.80;99.90;;;;;;10488069;28;20568;-62
2024/02/03 10:46:20;;;;;;;24.15;19.30;;;10.80;99.90;;;;;;10496898;28;20276;-61
2024/02/03 10:51:28;;;;;;;21.70;17.75;;;10.70;99.90;;;;;;10481840;28;20252;-66
2024/02/03 10:56:37;;;;;;;22.95;17.27;;;10.80;99.90;;;;;;10518525;28;20596;-66
2024/02/03 11:01:42;;;;;;;22.58;16.98;;;10.80;99.90;;;;;;10486934;28;20210;-61
2024/02/03 11:06:47;;;;;;;20.42;16.60;;;10.80;99.90;;;;;;10509551;28;20222;-61
2024/02/03 11:11:52;;;;;;;22.30;16.30;;;10.80;99.90;;;;;;10479169;28;20194;-64
2024/02/03 11:16:59;;;;;;;21.95;17.45;;;10.80;99.90;;;;;;10506058;28;20215;-64
2024/02/03 11:22:06;;;;;;;18.27;14.95;;;10.80;99.90;;;;;;10511611;28;20753;-62
2024/02/03 11:27:10;;;;;;;20.60;17.10;;;10.80;99.90;;;;;;10488814;28;20215;-63
2024/02/03 11:32:15;;;;;;;21.75;17.00;;;10.90;99.90;;;;;;10504275;28;20260;-63
2024/02/03 11:37:19;;;;;;;21.80;17.85;;;10.90;99.90;;;;;;10494149;28;20766;-64
2024/02/03 11:42:22;;;;;;;22.38;16.02;;;10.90;99.90;;;;;;10499741;28;20572;-61
2024/02/03 11:47:27;;;;;;;19.80;16.02;;;10.90;99.90;;;;;;10511183;28;20359;-63
2024/02/03 11:52:31;;;;;;;19.48;16.48;;;11.00;99.90;;;;;;10487533;28;20194;-66
2024/02/03 11:57:35;;;;;;;18.60;15.18;;;11.00;99.90;;;;;;10470523;28;20609;-66
2024/02/03 12:02:41;;;;;;;18.85;14.68;;;11.00;99.90;;;;;;10476214;28;20690;-62
2024/02/03 12:07:45;;;;;;;17.27;13.60;;;11.00;99.90;;;;;;10510619;28;20222;-61
2024/02/03 12:12:49;;;;;;;15.80;13.57;;;11.00;99.90;;;;;;10497325;28;20558;-63
2024/02/03 12:17:58;;;;;;;14.43;12.50;;;11.00;99.90;;;;;;10485355;28;20257;-63
2024/02/03 12:23:02;;;;;;;14.65;13.05;;;11.00;99.90;;;;;;10471511;28;20268;-60
2024/02/03 12:28:06;;;;;;;16.33;12.10;;;11.00;99.90;;;;;;10508315;28;20218;-64
2024/02/03 12:33:11;;;;;;;14.85;12.70;;;11.10;99.90;;;;;;10529171;28;20191;-63
2024/02/03 12:38:16;;;;;;;15.90;12.02;;;11.10;99.90;;;;;;10498343;28;20238;-63
2024/02/03 12:43:19;;;;;;;16.52;12.88;;;11.10;99.90;;;;;;10500748;28;20210;-62
2024/02/03 12:48:25;;;;;;;15.57;13.55;;;11.10;99.90;;;;;;10545649;28;20210;-67
2024/02/03 12:53:30;;;;;;;14.95;13.05;;;11.10;99.90;;;;;;10540171;28;20603;-63
2024/02/03 12:58:33;;;;;;;16.42;13.30;;;11.10;99.90;;;;;;10546582;28;20230;-62
2024/02/03 13:03:38;;;;;;;17.23;13.73;;;11.10;99.90;;;;;;10539585;28;20617;-62
2024/02/03 13:08:42;;;;;;;19.17;14.07;;;11.10;99.90;;;;;;10539282;28;20222;-65
2024/02/03 13:13:46;;;;;;;15.27;12.48;;;11.10;99.90;;;;;;10539394;28;20187;-62
2024/02/03 13:18:51;;;;;;;13.40;11.45;;;11.10;99.90;;;;;;10539090;28;20240;-64
2024/02/03 13:23:54;;;;;;;12.35;11.05;;;11.10;99.90;;;;;;10538577;28;20199;-63
2024/02/03 13:28:58;;;;;;;13.13;11.82;;;11.10;99.90;;;;;;10542956;28;20226;-63
2024/02/03 13:34:04;;;;;;;13.95;12.50;;;11.10;99.90;;;;;;10537561;28;20252;-62
2024/02/03 13:39:08;;;;;;;13.20;11.45;;;11.10;99.90;;;;;;10537863;28;20218;-62
2024/02/03 13:44:11;;;;;;;13.57;11.82;;;11.10;99.90;;;;;;10538353;28;20206;-64
2024/02/03 13:49:16;;;;;;;14.45;11.95;;;11.10;99.90;;;;;;10530921;28;20215;-62
2024/02/03 13:54:21;;;;;;;13.98;11.73;;;11.10;99.90;;;;;;10495678;28;20244;-59
2024/02/03 13:59:28;;;;;;;12.40;11.18;;;11.10;99.90;;;;;;10495568;28;20280;-62
2024/02/03 14:04:33;;;;;;;12.52;10.80;;;11.20;99.90;;;;;;10495166;28;20241;-61
2024/02/03 14:09:36;;;;;;;13.82;10.98;;;11.10;99.90;;;;;;10495739;28;20583;-60
2024/02/03 14:14:40;;;;;;;12.25;10.98;;;11.10;99.90;;;;;;10479433;22;20217;-60
2024/02/03 14:19:45;;;;;;;13.20;11.13;;;11.20;99.90;;;;;;10452692;28;20288;-61
2024/02/03 14:24:49;;;;;;;11.18;9.68;;;11.20;99.90;;;;;;10426267;28;20249;-61
2024/02/03 14:29:53;;;;;;;12.25;10.73;;;11.20;99.90;;;;;;10406383;28;20228;-61
2024/02/03 14:34:57;;;;;;;12.27;11.05;;;11.20;99.90;;;;;;10404508;28;20216;-61
2024/02/03 14:40:04;;;;;;;14.45;11.88;;;11.20;99.90;;;;;;10411353;28;20208;-62
2024/02/03 14:45:10;;;;;;;14.52;12.98;;;11.10;99.90;;;;;;10411353;28;20251;-61
2024/02/03 14:50:15;;;;;;;16.20;12.95;;;11.20;99.90;;;;;;10407501;28;20634;-61
2024/02/03 14:55:19;;;;;;;15.90;13.40;;;11.10;99.90;;;;;;10408474;28;20216;-62
2024/02/03 15:00:24;;;;;;;18.48;13.95;;;11.10;99.90;;;;;;10407653;28;20635;-64
2024/02/03 15:05:29;;;;;;;18.67;14.75;;;11.10;99.90;;;;;;10400698;28;20274;-61
2024/02/03 15:10:34;;;;;;;16.85;13.15;;;11.10;99.90;;;;;;10410614;28;20208;-62
2024/02/03 15:15:37;;;;;;;12.95;11.07;;;11.10;99.90;;;;;;10412022;28;20263;-63
2024/02/03 15:20:42;;;;;;;13.75;11.43;;;11.10;99.90;;;;;;10414277;28;20253;-63
2024/02/03 15:25:46;;;;;;;12.57;11.02;;;11.10;99.90;;;;;;10417461;28;20692;-63
2024/02/03 15:30:50;;;;;;;13.05;11.30;;;11.10;99.90;;;;;;10413103;28;20262;-63
2024/02/03 15:35:55;;;;;;;13.95;11.38;;;11.10;99.90;;;;;;10413891;28;20243;-62
2024/02/03 15:40:59;;;;;;;12.13;10.77;;;11.10;99.90;;;;;;10416821;28;20250;-62
2024/02/03 15:46:03;;;;;;;12.70;10.20;;;11.10;99.90;;;;;;10422317;28;20260;-64
2024/02/03 15:51:09;;;;;;;11.50;10.13;;;11.10;99.90;;;;;;10427195;28;20270;-63
2024/02/03 15:56:13;;;;;;;12.90;10.60;;;11.10;99.90;;;;;;10420863;28;20263;-64
2024/02/03 16:01:17;;;;;;;13.02;10.55;;;11.10;99.90;;;;;;10417163;28;20208;-64
2024/02/03 16:06:22;;;;;;;14.18;11.27;;;11.10;99.90;;;;;;10414474;28;20224;-63
2024/02/03 16:11:26;;;;;;;14.38;11.80;;;11.10;99.90;;;;;;10418790;28;20208;-61
2024/02/03 16:16:30;;;;;;;14.57;11.30;;;11.10;99.90;;;;;;10413129;28;20208;-64
2024/02/03 16:21:35;;;;;;;16.88;11.88;;;11.00;99.90;;;;;;10413128;28;20200;-64
2024/02/03 16:26:40;;;;;;;14.55;10.93;;;11.00;99.90;;;;;;10418561;28;20740;-62
2024/02/03 16:31:44;;;;;;;13.95;10.05;;;11.00;99.90;;;;;;10417897;28;20222;-64
2024/02/03 16:36:49;;;;;;;12.07;10.77;;;11.00;99.90;;;;;;10421483;28;20196;-64
2024/02/03 16:41:53;;;;;;;12.88;10.75;;;11.00;99.90;;;;;;10411013;28;20212;-64
2024/02/03 16:46:59;;;;;;;13.43;10.60;;;11.00;99.90;;;;;;10415869;28;20633;-63
2024/02/03 16:52:05;;;;;;;15.38;13.88;;;11.00;99.90;;;;;;10408418;28;20437;-61
2024/02/03 16:57:10;;;;;;;12.05;10.82;;;11.20;99.90;;;;;;10411334;28;20242;-62
2024/02/03 17:02:14;;;;;;;12.30;11.05;;;11.20;99.90;;;;;;10412099;28;20474;-60
2024/02/03 17:07:22;;;;;;;15.40;12.82;;;11.20;99.90;;;;;;10411243;28;20270;-61
2024/02/03 17:12:26;;;;;;;14.75;11.98;;;11.20;99.90;;;;;;10416779;28;20705;-61
2024/02/03 17:17:30;;;;;;;14.45;12.85;;;11.10;99.90;;;;;;10411137;28;20223;-59
2024/02/03 17:22:35;;;;;;;15.80;13.43;;;11.10;99.90;;;;;;10411416;28;20228;-62
2024/02/03 17:27:41;;;;;;;17.60;14.73;;;11.10;99.90;;;;;;10414805;28;20264;-62
2024/02/03 17:32:47;;;;;;;21.58;18.55;;;11.10;99.90;;;;;;10422647;28;20220;-59
2024/02/03 17:37:52;;;;;;;21.92;18.15;;;11.10;99.90;;;;;;10410500;28;20254;-60
2024/02/03 17:42:56;;;;;;;23.38;19.83;;;11.10;99.90;;;;;;10413632;28;20220;-59
2024/02/03 17:47:59;;;;;;;22.35;19.83;;;11.10;99.90;;;;;;10413757;28;20566;-61
2024/02/03 17:53:04;;;;;;;24.90;20.90;;;11.10;99.90;;;;;;10412619;28;20220;-61
2024/02/03 17:58:08;;;;;;;24.85;21.15;;;11.10;99.90;;;;;;10410916;28;20257;-62
2024/02/03 18:03:11;;;;;;;25.63;20.75;;;11.10;99.90;;;;;;10408839;28;20221;-59
2024/02/03 18:08:17;;;;;;;23.98;20.27;;;11.10;99.90;;;;;;10412453;28;20196;-59
2024/02/03 18:13:21;;;;;;;26.05;20.42;;;11.10;99.90;;;;;;10407768;28;20231;-59
2024/02/03 18:18:26;;;;;;;23.40;19.42;;;11.10;99.90;;;;;;10407780;28;20204;-62
2024/02/03 18:23:33;;;;;;;24.08;19.35;;;11.10;99.90;;;;;;10407239;28;20228;-59
2024/02/03 18:28:38;;;;;;;20.88;17.48;;;11.20;99.90;;;;;;10406843;28;20247;-57
2024/02/03 18:33:43;;;;;;;20.45;17.48;;;11.20;99.90;;;;;;10415458;28;20220;-60
2024/02/03 18:38:48;;;;;;;20.98;17.10;;;11.10;99.90;;;;;;10411533;28;20208;-60
2024/02/03 18:43:51;;;;;;;23.70;18.33;;;11.10;99.90;;;;;;10407681;28;20216;-60
2024/02/03 18:48:56;;;;;;;22.67;17.95;;;11.20;99.90;;;;;;10407163;28;20231;-60
2024/02/03 18:54:03;;;;;;;25.33;19.30;;;11.10;99.90;;;;;;10410896;28;20699;-61
2024/02/03 18:59:06;;;;;;;26.23;18.70;;;11.10;99.90;;;;;;10413078;28;20238;-60
2024/02/03 19:04:11;;;;;;;26.15;19.52;;;11.20;99.90;;;;;;10410256;28;20280;-61
2024/02/03 19:09:17;;;;;;;27.75;20.40;;;11.20;99.90;;;;;;10413439;28;20204;-59
2024/02/03 19:14:20;;;;;;;26.55;20.42;;;11.20;99.90;;;;;;10407228;28;20254;-60
2024/02/03 19:19:24;;;;;;;29.13;21.13;;;11.20;99.90;;;;;;10407868;28;20230;-60
2024/02/03 19:24:29;;;;;;;33.15;22.20;;;11.20;99.90;;;;;;10405635;28;20247;-60
2024/02/03 19:29:33;;;;;;;28.45;21.67;;;11.10;99.90;;;;;;10407591;28;20200;-60
2024/02/03 19:34:36;;;;;;;25.02;21.00;;;11.10;99.90;;;;;;10408268;28;20216;-59
2024/02/03 19:39:41;;;;;;;27.63;20.75;;;11.20;99.90;;;;;;10411913;28;20247;-60
2024/02/03 19:44:45;;;;;;;30.58;23.42;;;11.10;99.90;;;;;;10407224;28;20216;-59
2024/02/03 19:49:51;;;;;;;32.50;23.05;;;11.20;99.90;;;;;;10408798;28;20764;-60
2024/02/03 19:54:56;;;;;;;31.77;24.27;;;11.20;99.90;;;;;;10409809;28;20216;-60
2024/02/03 20:00:00;;;;;;;32.47;24.85;;;11.20;99.90;;;;;;10410840;28;20200;-59
2024/02/03 20:05:04;;;;;;;34.40;24.70;;;11.20;99.90;;;;;;10413541;28;20243;-61
2024/02/03 20:10:10;;;;;;;35.60;26.45;;;11.20;99.90;;;;;;10412457;28;20200;-62
2024/02/03 20:15:14;;;;;;;36.00;27.58;;;11.20;99.90;;;;;;10450635;22;20262;-60
2024/02/03 20:20:18;;;;;;;38.35;28.35;;;11.20;99.90;;;;;;10431587;28;20238;-59
2024/02/03 20:25:23;;;;;;;40.08;28.73;;;11.20;99.90;;;;;;10432096;28;20247;-59
2024/02/03 20:30:27;;;;;;;40.53;29.80;;;11.20;99.90;;;;;;10413343;28;20208;-58
2024/02/03 20:35:32;;;;;;;43.47;30.50;;;11.20;99.90;;;;;;10415452;28;20228;-57
2024/02/03 20:40:40;;;;;;;40.20;29.85;;;11.20;99.90;;;;;;10420811;28;20245;-59
2024/02/03 20:45:45;;;;;;;37.83;28.73;;;11.20;99.90;;;;;;10422635;28;20270;-59
2024/02/03 20:50:49;;;;;;;38.92;28.60;;;11.20;99.90;;;;;;10429240;28;20191;-59
2024/02/03 20:55:55;;;;;;;36.53;27.63;;;11.20;99.90;;;;;;10417749;28;20220;-60
2024/02/03 21:00:58;;;;;;;35.63;27.83;;;11.20;99.90;;;;;;10421402;28;20204;-59
2024/02/03 21:06:02;;;;;;;36.38;27.90;;;11.20;99.90;;;;;;10415873;28;20912;-57
2024/02/03 21:11:07;;;;;;;36.03;26.42;;;11.20;99.90;;;;;;10416249;28;20227;-60
2024/02/03 21:16:12;;;;;;;33.75;26.52;;;11.20;99.90;;;;;;10410976;28;20333;-60
2024/02/03 21:21:16;;;;;;;39.05;28.30;;;11.30;99.90;;;;;;10417543;28;20228;-60
2024/02/03 21:26:21;;;;;;;32.85;26.67;;;11.30;99.90;;;;;;10410643;28;20298;-60
2024/02/03 21:31:25;;;;;;;38.35;27.60;;;11.30;99.90;;;;;;10421740;28;20351;-60
2024/02/03 21:36:29;;;;;;;35.65;26.98;;;11.30;99.90;;;;;;10411884;28;20244;-61
2024/02/03 21:41:34;;;;;;;34.10;26.35;;;11.30;99.90;;;;;;10413785;28;20231;-60
2024/02/03 21:46:37;;;;;;;34.95;25.92;;;11.30;99.90;;;;;;10401145;28;20302;-59
2024/02/03 21:51:41;;;;;;;33.17;25.80;;;11.30;99.90;;;;;;10407976;28;20250;-60
2024/02/03 21:56:46;;;;;;;36.60;27.92;;;11.30;99.90;;;;;;10407032;28;20285;-59
2024/02/03 22:01:50;;;;;;;35.60;26.20;;;11.30;99.90;;;;;;10409916;28;20224;-59
2024/02/03 22:06:53;;;;;;;33.38;24.88;;;11.30;99.90;;;;;;10417807;28;20701;-59
2024/02/03 22:11:58;;;;;;;37.13;26.90;;;11.30;99.90;;;;;;10413307;28;20227;-61
2024/02/03 22:17:02;;;;;;;30.00;24.38;;;11.30;99.90;;;;;;10409381;28;20704;-58
2024/02/03 22:22:05;;;;;;;27.95;22.98;;;11.30;99.90;;;;;;10412186;28;20761;-60
2024/02/03 22:27:10;;;;;;;29.35;25.30;;;11.30;99.90;;;;;;10406723;28;20298;-60
2024/02/03 22:32:14;;;;;;;28.48;23.63;;;11.30;99.90;;;;;;10416245;28;20278;-59
2024/02/03 22:37:18;;;;;;;26.00;23.20;;;11.30;99.90;;;;;;10410508;28;20772;-59
2024/02/03 22:42:23;;;;;;;28.23;24.00;;;11.30;99.90;;;;;;10406313;28;20231;-60
2024/02/03 22:47:26;;;;;;;30.02;24.13;;;11.30;99.90;;;;;;10407823;28;20658;-60
2024/02/03 22:52:30;;;;;;;28.73;25.13;;;11.30;99.90;;;;;;10404734;28;20262;-58
2024/02/03 22:57:35;;;;;;;27.17;23.65;;;11.30;99.90;;;;;;10413910;28;20262;-59
2024/02/03 23:02:39;;;;;;;26.63;23.75;;;11.30;99.90;;;;;;10413705;28;20793;-59
2024/02/03 23:07:42;;;;;;;26.85;23.70;;;11.30;99.90;;;;;;10406683;28;20251;-59
2024/02/03 23:12:47;;;;;;;27.17;23.88;;;11.30;99.90;;;;;;10417292;28;20227;-57
2024/02/03 23:17:51;;;;;;;26.92;23.27;;;11.30;99.90;;;;;;10419401;28;20227;-60
2024/02/03 23:22:55;;;;;;;25.63;23.00;;;11.30;99.90;;;;;;10424508;28;20662;-57
2024/02/03 23:28:00;;;;;;;25.75;22.98;;;11.30;99.90;;;;;;10413846;28;20249;-58
2024/02/03 23:33:04;;;;;;;25.05;22.45;;;11.30;99.90;;;;;;10419478;28;20223;-59
2024/02/03 23:38:07;;;;;;;25.55;22.42;;;11.30;99.90;;;;;;10423961;28;20215;-58
2024/02/03 23:43:13;;;;;;;24.80;22.08;;;11.30;99.90;;;;;;10414592;28;20197;-57
2024/02/03 23:48:16;;;;;;;23.55;21.05;;;11.30;99.90;;;;;;10416600;28;20283;-58
2024/02/03 23:53:20;;;;;;;24.05;20.27;;;11.30;99.90;;;;;;10422422;28;20592;-58
2024/02/03 23:58:26;;;;;;;22.33;19.65;;;11.30;99.90;;;;;;10420463;28;20270;-60
